Time;durP1;ratioP1;P1;durP2;ratioP2;P2;SDS_P1;SDS_P2;PMS_P1;PMS_P2;Temp;Humidity;BMP_temperature;BMP_pressure;BME280_temperature;BME280_humidity;BME280_pressure;Samples;Min_cycle;Max_cycle;Signal;HPM_P1;HPM_P2
2023/07/22 00:00:14;;;;;;;6.30;3.00;;;;;;;;;;109722;1247;24092;-83
2023/07/22 00:03:00;;;;;;;7.30;3.10;;;;;;;;;;109875;1247;22494;-79
2023/07/22 00:05:26;;;;;;;6.40;3.20;;;;;;;;;;109713;1247;22501;-86
2023/07/22 00:07:52;;;;;;;7.20;2.80;;;;;;;;;;109651;1247;24253;-82
2023/07/22 00:10:42;;;;;;;6.20;3.10;;;;;;;;;;109816;1247;22925;-84
2023/07/22 00:13:11;;;;;;;7.90;3.20;;;;;;;;;;109879;1247;24217;-80
2023/07/22 00:15:38;;;;;;;6.60;3.10;;;;;;;;;;109500;1246;22994;-84
2023/07/22 00:18:12;;;;;;;6.20;3.20;;;;;;;;;;109777;1242;22495;-84
2023/07/22 00:20:38;;;;;;;7.80;3.50;;;;;;;;;;109961;1247;24279;-85
2023/07/22 00:23:04;;;;;;;9.70;3.80;;;;;;;;;;109873;1247;22519;-86
2023/07/22 00:25:30;;;;;;;6.30;3.50;;;;;;;;;;109699;1247;25283;-79
2023/07/22 00:27:57;;;;;;;8.20;3.30;;;;;;;;;;109914;1235;24236;-86
2023/07/22 00:30:23;;;;;;;6.20;3.20;;;;;;;;;;109687;1246;22502;-83
2023/07/22 00:32:49;;;;;;;7.70;3.50;;;;;;;;;;109780;1246;25321;-80
2023/07/22 00:35:15;;;;;;;5.20;3.00;;;;;;;;;;109835;1247;24294;-82
2023/07/22 00:37:41;;;;;;;7.50;3.80;;;;;;;;;;109675;1246;22502;-82
2023/07/22 00:40:11;;;;;;;6.80;3.50;;;;;;;;;;109762;1246;25213;-80
2023/07/22 00:42:38;;;;;;;9.20;3.30;;;;;;;;;;109831;1244;22507;-87
2023/07/22 00:45:05;;;;;;;6.90;3.30;;;;;;;;;;109796;1247;22517;-83
2023/07/22 00:47:34;;;;;;;7.30;3.20;;;;;;;;;;109810;1240;22610;-82
2023/07/22 00:50:06;;;;;;;7.00;3.30;;;;;;;;;;109815;1247;25365;-81
2023/07/22 00:52:32;;;;;;;5.60;3.10;;;;;;;;;;109804;1247;25318;-82
2023/07/22 00:54:59;;;;;;;6.60;3.60;;;;;;;;;;109550;1247;22501;-80
2023/07/22 00:57:27;;;;;;;7.10;3.20;;;;;;;;;;109756;1242;22509;-88
2023/07/22 00:59:54;;;;;;;6.90;3.30;;;;;;;;;;109857;1247;22524;-81
2023/07/22 01:02:21;;;;;;;6.80;2.90;;;;;;;;;;109870;1246;25488;-84
2023/07/22 01:04:49;;;;;;;6.20;2.90;;;;;;;;;;109938;1246;25439;-85
2023/07/22 01:07:16;;;;;;;6.90;3.30;;;;;;;;;;109881;1246;22509;-79
2023/07/22 01:09:43;;;;;;;7.40;3.40;;;;;;;;;;109514;1247;24380;-83
2023/07/22 01:12:09;;;;;;;7.50;3.60;;;;;;;;;;109866;1246;22516;-86
2023/07/22 01:14:37;;;;;;;8.20;3.10;;;;;;;;;;109783;1247;22498;-84
2023/07/22 01:17:04;;;;;;;6.50;3.20;;;;;;;;;;109812;1247;25364;-81
2023/07/22 01:19:31;;;;;;;7.00;3.00;;;;;;;;;;109780;1247;22502;-83
2023/07/22 01:22:07;;;;;;;6.40;2.90;;;;;;;;;;109898;1247;22521;-86
2023/07/22 01:24:34;;;;;;;6.30;3.30;;;;;;;;;;109892;1247;22461;-82
2023/07/22 01:27:10;;;;;;;6.90;3.30;;;;;;;;;;109682;1247;22583;-80
2023/07/22 01:29:37;;;;;;;6.60;3.10;;;;;;;;;;109823;1237;23198;-81
2023/07/22 01:32:05;;;;;;;6.80;3.00;;;;;;;;;;109829;1247;23161;-83
2023/07/22 01:34:32;;;;;;;5.60;3.00;;;;;;;;;;109819;1246;22518;-83
2023/07/22 01:36:59;;;;;;;6.80;3.40;;;;;;;;;;107359;1247;3423277;-83
2023/07/22 01:39:27;;;;;;;7.30;3.60;;;;;;;;;;109901;1236;22502;-83
2023/07/22 01:41:53;;;;;;;6.30;3.30;;;;;;;;;;109811;1246;24271;-86
2023/07/22 01:44:19;;;;;;;6.10;3.20;;;;;;;;;;109776;1247;25386;-80
2023/07/22 01:46:46;;;;;;;6.10;2.90;;;;;;;;;;109826;1247;25311;-80
2023/07/22 01:49:12;;;;;;;5.60;2.90;;;;;;;;;;109594;1247;25276;-82
2023/07/22 01:51:40;;;;;;;6.20;2.50;;;;;;;;;;109817;1247;24248;-83
2023/07/22 01:54:09;;;;;;;7.20;2.90;;;;;;;;;;109875;1247;22491;-84
2023/07/22 01:56:36;;;;;;;5.30;2.80;;;;;;;;;;109738;1246;25203;-83
2023/07/22 01:59:02;;;;;;;7.30;3.30;;;;;;;;;;109546;1240;24162;-83
2023/07/22 02:01:28;;;;;;;6.70;3.00;;;;;;;;;;109767;1247;22548;-80
2023/07/22 02:03:55;;;;;;;6.80;2.80;;;;;;;;;;109872;1247;25267;-84
2023/07/22 02:06:21;;;;;;;6.10;2.50;;;;;;;;;;109899;1246;22643;-81
2023/07/22 02:08:48;;;;;;;6.60;2.80;;;;;;;;;;109822;1243;22508;-86
2023/07/22 02:11:16;;;;;;;5.10;2.60;;;;;;;;;;109832;1246;22507;-84
2023/07/22 02:13:42;;;;;;;6.40;2.90;;;;;;;;;;109646;1246;22697;-86
2023/07/22 02:16:11;;;;;;;7.00;2.80;;;;;;;;;;109724;1246;25343;-81
2023/07/22 02:18:40;;;;;;;6.40;3.20;;;;;;;;;;109702;1246;22677;-79
2023/07/22 02:21:07;;;;;;;5.80;2.80;;;;;;;;;;109757;1245;25287;-81
2023/07/22 02:23:43;;;;;;;7.00;2.80;;;;;;;;;;109864;1247;23317;-84
2023/07/22 02:26:09;;;;;;;6.90;2.60;;;;;;;;;;109874;1246;22624;-79
2023/07/22 02:28:35;;;;;;;7.20;2.80;;;;;;;;;;109839;1246;25335;-83
2023/07/22 02:31:07;;;;;;;7.50;2.70;;;;;;;;;;109772;1247;22527;-81
2023/07/22 02:33:33;;;;;;;5.70;2.70;;;;;;;;;;109788;1247;25662;-84
2023/07/22 02:35:59;;;;;;;6.10;2.80;;;;;;;;;;109788;1247;26470;-80
2023/07/22 02:38:25;;;;;;;5.40;2.30;;;;;;;;;;109792;1247;24057;-80
2023/07/22 02:40:55;;;;;;;5.70;2.40;;;;;;;;;;109832;1246;25307;-82
2023/07/22 02:43:21;;;;;;;4.40;2.00;;;;;;;;;;109774;1246;25304;-83
2023/07/22 02:45:47;;;;;;;5.60;2.30;;;;;;;;;;109849;1247;22621;-86
2023/07/22 02:48:14;;;;;;;5.10;2.20;;;;;;;;;;109716;1247;22507;-81
2023/07/22 02:50:48;;;;;;;7.00;2.20;;;;;;;;;;109934;1243;24344;-82
2023/07/22 02:53:16;;;;;;;5.20;2.30;;;;;;;;;;109548;1246;22497;-80
2023/07/22 02:55:46;;;;;;;5.20;2.40;;;;;;;;;;109887;1246;22503;-84
2023/07/22 02:58:12;;;;;;;5.20;2.60;;;;;;;;;;109836;1246;22497;-81
2023/07/22 03:00:38;;;;;;;6.90;2.40;;;;;;;;;;109803;1237;23335;-81
2023/07/22 03:03:05;;;;;;;4.50;2.30;;;;;;;;;;109850;1246;24333;-81
2023/07/22 03:05:32;;;;;;;5.20;2.20;;;;;;;;;;109670;1246;22508;-80
2023/07/22 03:07:58;;;;;;;5.40;2.30;;;;;;;;;;109933;1246;22514;-86
2023/07/22 03:10:28;;;;;;;6.00;2.10;;;;;;;;;;109659;1237;24648;-82
2023/07/22 03:12:55;;;;;;;5.60;2.10;;;;;;;;;;109869;1246;22498;-84
2023/07/22 03:15:22;;;;;;;6.80;2.60;;;;;;;;;;109852;1246;24218;-80
2023/07/22 03:17:49;;;;;;;6.40;2.80;;;;;;;;;;109868;1243;22603;-85
2023/07/22 03:20:16;;;;;;;7.00;2.80;;;;;;;;;;109680;1247;25553;-84
2023/07/22 03:22:43;;;;;;;5.60;2.40;;;;;;;;;;109846;1246;24352;-82
2023/07/22 03:25:10;;;;;;;6.80;2.60;;;;;;;;;;109817;1246;23844;-79
2023/07/22 03:27:37;;;;;;;5.40;2.00;;;;;;;;;;109893;1247;24517;-84
2023/07/22 03:30:03;;;;;;;7.00;2.20;;;;;;;;;;109809;1244;25222;-78
2023/07/22 03:32:30;;;;;;;6.30;2.30;;;;;;;;;;109646;1246;25386;-80
2023/07/22 03:34:58;;;;;;;6.60;2.50;;;;;;;;;;109927;1246;24114;-83
2023/07/22 03:37:30;;;;;;;6.50;2.20;;;;;;;;;;109921;1247;25420;-83
2023/07/22 03:39:56;;;;;;;4.80;2.30;;;;;;;;;;109857;1246;22505;-87
2023/07/22 03:42:22;;;;;;;4.80;2.40;;;;;;;;;;109778;1245;22511;-85
2023/07/22 03:44:48;;;;;;;6.30;2.10;;;;;;;;;;109867;1246;24184;-85
2023/07/22 03:47:16;;;;;;;6.30;2.10;;;;;;;;;;109889;1246;25258;-81
2023/07/22 03:49:43;;;;;;;4.60;1.80;;;;;;;;;;109838;1246;23873;-79
2023/07/22 03:52:09;;;;;;;6.30;2.40;;;;;;;;;;109818;1245;22499;-87
2023/07/22 03:54:35;;;;;;;4.80;2.30;;;;;;;;;;109710;1246;22501;-81
2023/07/22 03:57:01;;;;;;;6.20;2.20;;;;;;;;;;109840;1246;24227;-80
2023/07/22 03:59:28;;;;;;;5.40;2.30;;;;;;;;;;109781;1246;24159;-85
2023/07/22 04:01:59;;;;;;;5.70;2.20;;;;;;;;;;109855;1237;22498;-85
2023/07/22 04:04:29;;;;;;;4.80;2.00;;;;;;;;;;109844;1246;22495;-81
2023/07/22 04:06:55;;;;;;;6.90;2.20;;;;;;;;;;109879;1246;25432;-85
2023/07/22 04:09:21;;;;;;;6.30;2.30;;;;;;;;;;109809;1246;25345;-83
2023/07/22 04:11:47;;;;;;;5.30;2.20;;;;;;;;;;109877;1245;22865;-86
2023/07/22 04:14:15;;;;;;;5.20;2.40;;;;;;;;;;109845;1246;22518;-84
2023/07/22 04:16:42;;;;;;;6.30;2.50;;;;;;;;;;109822;1247;22452;-85
2023/07/22 04:19:08;;;;;;;4.00;2.00;;;;;;;;;;109792;1246;22492;-88
2023/07/22 04:21:46;;;;;;;5.00;2.20;;;;;;;;;;109719;1240;24218;-81
2023/07/22 04:24:24;;;;;;;5.20;2.00;;;;;;;;;;109919;1247;23848;-84
2023/07/22 04:26:51;;;;;;;4.30;2.00;;;;;;;;;;109766;1246;25438;-82
2023/07/22 04:29:17;;;;;;;4.80;2.00;;;;;;;;;;109699;1247;24333;-80
2023/07/22 04:32:00;;;;;;;5.50;2.10;;;;;;;;;;109909;1246;22520;-85
2023/07/22 04:34:32;;;;;;;6.70;2.30;;;;;;;;;;109931;1246;22504;-78
2023/07/22 04:36:58;;;;;;;5.40;2.10;;;;;;;;;;109691;1246;23850;-84
2023/07/22 04:39:25;;;;;;;4.60;2.20;;;;;;;;;;109817;1246;25342;-84
2023/07/22 04:41:54;;;;;;;4.90;2.00;;;;;;;;;;109728;1231;25273;-81
2023/07/22 04:44:41;;;;;;;4.60;1.90;;;;;;;;;;109930;1247;23156;-80
2023/07/22 04:47:07;;;;;;;5.30;2.10;;;;;;;;;;109923;1246;25544;-82
2023/07/22 04:49:34;;;;;;;6.70;2.50;;;;;;;;;;109909;1246;24120;-85
2023/07/22 04:52:02;;;;;;;4.50;2.40;;;;;;;;;;109568;1231;22526;-85
2023/07/22 04:54:28;;;;;;;5.30;2.30;;;;;;;;;;109927;1247;22495;-82
2023/07/22 04:56:54;;;;;;;5.40;2.30;;;;;;;;;;109773;1247;22497;-88
2023/07/22 04:59:20;;;;;;;4.40;2.20;;;;;;;;;;109853;1246;24287;-88
2023/07/22 05:02:01;;;;;;;4.70;2.10;;;;;;;;;;109787;1247;22511;-80
2023/07/22 05:04:41;;;;;;;5.50;2.40;;;;;;;;;;109897;1236;24252;-85
2023/07/22 05:07:10;;;;;;;5.50;2.50;;;;;;;;;;110047;1247;25178;-81
2023/07/22 05:09:36;;;;;;;5.80;2.40;;;;;;;;;;109993;1246;25376;-84
2023/07/22 05:12:03;;;;;;;5.70;2.70;;;;;;;;;;109826;1246;22672;-87
2023/07/22 05:14:32;;;;;;;8.30;2.50;;;;;;;;;;109696;1237;25673;-82
2023/07/22 05:16:58;;;;;;;4.60;2.20;;;;;;;;;;109890;1246;25346;-84
2023/07/22 05:19:24;;;;;;;6.00;2.50;;;;;;;;;;109747;1247;24256;-83
2023/07/22 05:21:50;;;;;;;6.40;2.70;;;;;;;;;;109713;1247;25315;-80
2023/07/22 05:24:16;;;;;;;6.20;2.60;;;;;;;;;;109861;1236;22560;-85
2023/07/22 05:26:42;;;;;;;6.20;2.50;;;;;;;;;;109712;1247;22507;-84
2023/07/22 05:29:11;;;;;;;5.30;2.70;;;;;;;;;;109979;1247;24277;-87
2023/07/22 05:31:45;;;;;;;6.10;2.80;;;;;;;;;;109909;1247;22466;-80
2023/07/22 05:34:19;;;;;;;6.00;2.60;;;;;;;;;;109847;1243;22888;-86
2023/07/22 05:36:48;;;;;;;6.20;2.80;;;;;;;;;;109904;1246;22606;-86
2023/07/22 05:39:17;;;;;;;5.40;2.60;;;;;;;;;;109806;1246;25333;-83
2023/07/22 05:41:45;;;;;;;6.50;2.60;;;;;;;;;;109682;1246;22497;-88
2023/07/22 05:44:17;;;;;;;5.30;2.50;;;;;;;;;;109896;1240;25256;-84
2023/07/22 05:46:43;;;;;;;6.40;2.70;;;;;;;;;;109853;1247;23206;-85
2023/07/22 05:49:13;;;;;;;6.80;2.80;;;;;;;;;;109846;1247;22850;-81
2023/07/22 05:51:42;;;;;;;6.70;2.80;;;;;;;;;;109600;1247;24236;-82
2023/07/22 05:54:08;;;;;;;6.30;3.10;;;;;;;;;;109866;1244;25426;-81
2023/07/22 05:56:34;;;;;;;6.20;2.90;;;;;;;;;;109662;1246;24338;-85
2023/07/22 05:59:04;;;;;;;5.90;2.70;;;;;;;;;;109709;1246;25416;-82
2023/07/22 06:01:30;;;;;;;6.30;2.80;;;;;;;;;;109736;1246;24490;-79
2023/07/22 06:03:56;;;;;;;8.40;2.90;;;;;;;;;;109926;1246;24236;-87
2023/07/22 06:06:22;;;;;;;6.20;2.80;;;;;;;;;;109857;1236;22510;-83
2023/07/22 06:08:48;;;;;;;7.40;2.80;;;;;;;;;;109671;1246;25477;-84
2023/07/22 06:11:14;;;;;;;5.70;2.80;;;;;;;;;;109876;1246;25377;-83
2023/07/22 06:13:43;;;;;;;6.40;2.80;;;;;;;;;;109879;1246;22572;-85
2023/07/22 06:16:14;;;;;;;7.40;3.20;;;;;;;;;;109695;1238;23774;-82
2023/07/22 06:18:44;;;;;;;6.30;3.10;;;;;;;;;;109883;1246;22513;-82
2023/07/22 06:21:10;;;;;;;6.90;2.90;;;;;;;;;;109879;1246;22448;-82
2023/07/22 06:23:38;;;;;;;5.90;3.10;;;;;;;;;;109865;1246;23883;-82
2023/07/22 06:26:07;;;;;;;5.40;3.10;;;;;;;;;;109888;1238;25386;-84
2023/07/22 06:28:34;;;;;;;6.20;3.30;;;;;;;;;;109897;1246;25380;-84
2023/07/22 06:31:00;;;;;;;5.10;2.80;;;;;;;;;;109699;1246;22590;-84
2023/07/22 06:33:26;;;;;;;5.90;3.00;;;;;;;;;;109912;1246;22495;-87
2023/07/22 06:36:01;;;;;;;6.50;3.20;;;;;;;;;;109822;1236;22608;-86
2023/07/22 06:38:32;;;;;;;6.20;3.20;;;;;;;;;;109922;1246;24096;-83
2023/07/22 06:40:58;;;;;;;7.00;3.20;;;;;;;;;;109676;1246;22505;-85
2023/07/22 06:43:27;;;;;;;6.00;3.10;;;;;;;;;;109888;1246;23853;-83
2023/07/22 06:45:53;;;;;;;6.70;3.50;;;;;;;;;;109663;1247;22492;-83
2023/07/22 06:48:25;;;;;;;5.50;2.60;;;;;;;;;;109656;1246;24536;-81
2023/07/22 06:50:51;;;;;;;5.50;2.60;;;;;;;;;;109937;1243;25346;-81
2023/07/22 06:53:19;;;;;;;6.90;3.30;;;;;;;;;;109916;1246;22516;-88
2023/07/22 06:55:49;;;;;;;5.30;2.70;;;;;;;;;;109623;1238;22508;-84
2023/07/22 06:58:15;;;;;;;6.80;2.90;;;;;;;;;;109915;1246;25414;-85
2023/07/22 07:00:41;;;;;;;4.40;2.20;;;;;;;;;;110021;1246;24196;-79
2023/07/22 07:03:07;;;;;;;6.40;2.30;;;;;;;;;;109754;1246;22552;-81
2023/07/22 07:05:34;;;;;;;5.90;2.80;;;;;;;;;;109869;1247;22713;-81
2023/07/22 07:08:03;;;;;;;5.50;2.50;;;;;;;;;;109759;1245;22498;-81
2023/07/22 07:10:36;;;;;;;6.20;2.90;;;;;;;;;;109862;1246;24408;-81
2023/07/22 07:13:02;;;;;;;4.90;2.40;;;;;;;;;;109977;1246;24351;-85
2023/07/22 07:15:28;;;;;;;7.40;2.70;;;;;;;;;;109917;1246;22800;-86
2023/07/22 07:17:54;;;;;;;4.00;1.90;;;;;;;;;;109881;1238;24150;-88
2023/07/22 07:20:21;;;;;;;5.10;2.10;;;;;;;;;;109683;1247;23875;-84
2023/07/22 07:22:47;;;;;;;6.40;2.30;;;;;;;;;;109645;1247;23874;-84
2023/07/22 07:25:15;;;;;;;5.00;2.00;;;;;;;;;;109568;1246;23184;-84
2023/07/22 07:27:41;;;;;;;4.80;2.10;;;;;;;;;;109898;1240;25374;-81
2023/07/22 07:30:10;;;;;;;7.10;2.30;;;;;;;;;;109687;1246;25474;-82
2023/07/22 07:32:36;;;;;;;5.90;2.60;;;;;;;;;;110025;1246;25528;-82
2023/07/22 07:35:04;;;;;;;10.40;3.80;;;;;;;;;;109819;1244;24244;-86
2023/07/22 07:37:33;;;;;;;6.00;2.30;;;;;;;;;;109948;1245;22492;-82
2023/07/22 07:40:03;;;;;;;8.10;2.70;;;;;;;;;;109842;1246;25247;-83
2023/07/22 07:42:29;;;;;;;8.30;3.20;;;;;;;;;;109881;1246;22534;-82
2023/07/22 07:44:55;;;;;;;7.60;2.80;;;;;;;;;;109666;1246;22498;-87
2023/07/22 07:47:21;;;;;;;6.10;2.40;;;;;;;;;;109963;1239;22495;-82
2023/07/22 07:55:53;;;;;;;4.60;2.40;;;;;;;;;;103837;1296;545352;-87
2023/07/22 07:58:29;;;;;;;6.50;2.70;;;;;;;;;;106325;1287;25256;-82
2023/07/22 08:00:56;;;;;;;4.70;2.40;;;;;;;;;;106931;1275;26038;-82
2023/07/22 08:03:23;;;;;;;7.00;2.90;;;;;;;;;;106952;1275;25447;-86
2023/07/22 08:05:52;;;;;;;5.30;2.70;;;;;;;;;;106986;1275;22531;-86
2023/07/22 08:08:26;;;;;;;4.90;2.30;;;;;;;;;;105210;1275;3298361;-81
2023/07/22 08:11:00;;;;;;;6.40;2.90;;;;;;;;;;107254;1272;22530;-85
2023/07/22 08:13:30;;;;;;;8.40;3.90;;;;;;;;;;107247;1272;24460;-84
2023/07/22 08:15:57;;;;;;;8.00;3.80;;;;;;;;;;107298;1255;25236;-82
2023/07/22 08:18:24;;;;;;;6.80;3.20;;;;;;;;;;107195;1272;22524;-82
2023/07/22 08:20:54;;;;;;;6.70;3.40;;;;;;;;;;107273;1266;22521;-82
2023/07/22 08:23:22;;;;;;;6.00;2.90;;;;;;;;;;107219;1270;25335;-86
2023/07/22 08:25:49;;;;;;;8.80;2.90;;;;;;;;;;107141;1257;25664;-86
2023/07/22 08:28:18;;;;;;;5.90;2.50;;;;;;;;;;107012;1273;25275;-82
2023/07/22 08:30:45;;;;;;;7.30;3.00;;;;;;;;;;107122;1273;24502;-82
2023/07/22 08:33:14;;;;;;;8.80;2.90;;;;;;;;;;107254;1273;25373;-86
2023/07/22 08:35:45;;;;;;;6.00;2.90;;;;;;;;;;107195;1262;22807;-86
2023/07/22 08:38:11;;;;;;;6.30;2.80;;;;;;;;;;107327;1274;25204;-86
2023/07/22 08:40:44;;;;;;;5.60;3.00;;;;;;;;;;107179;1274;22524;-85
2023/07/22 08:43:21;;;;;;;7.80;2.80;;;;;;;;;;107174;1274;22645;-88
2023/07/22 08:45:54;;;;;;;9.60;4.40;;;;;;;;;;106990;1250;24260;-85
2023/07/22 08:48:21;;;;;;;8.60;3.90;;;;;;;;;;107184;1274;22528;-86
2023/07/22 08:50:53;;;;;;;8.60;4.40;;;;;;;;;;106991;1274;22502;-83
2023/07/22 08:53:20;;;;;;;6.80;3.00;;;;;;;;;;106953;1274;22526;-84
2023/07/22 08:55:52;;;;;;;7.80;3.40;;;;;;;;;;107223;1274;24515;-85
2023/07/22 08:58:19;;;;;;;7.10;2.80;;;;;;;;;;106994;1251;24209;-86
2023/07/22 09:00:47;;;;;;;6.40;2.70;;;;;;;;;;107323;1274;24258;-84
2023/07/22 09:03:16;;;;;;;8.10;3.40;;;;;;;;;;107271;1270;22527;-83
2023/07/22 09:05:46;;;;;;;5.80;2.80;;;;;;;;;;107198;1274;22534;-87
2023/07/22 09:08:14;;;;;;;5.40;2.20;;;;;;;;;;107161;1267;25274;-85
2023/07/22 09:10:44;;;;;;;6.30;2.70;;;;;;;;;;107048;1274;22524;-85
2023/07/22 09:13:12;;;;;;;5.20;2.60;;;;;;;;;;107158;1274;24227;-85
2023/07/22 09:15:39;;;;;;;6.00;2.80;;;;;;;;;;107107;1274;25302;-82
2023/07/22 09:18:07;;;;;;;5.70;2.50;;;;;;;;;;107220;1261;25220;-81
2023/07/22 09:20:34;;;;;;;6.30;2.80;;;;;;;;;;107180;1274;22520;-87
2023/07/22 09:23:04;;;;;;;6.70;2.70;;;;;;;;;;107238;1274;22509;-82
2023/07/22 09:25:32;;;;;;;4.90;2.50;;;;;;;;;;106983;1274;25278;-88
2023/07/22 09:28:02;;;;;;;6.60;2.90;;;;;;;;;;106966;1257;25532;-85
2023/07/22 09:30:31;;;;;;;5.40;2.60;;;;;;;;;;107174;1274;24602;-84
2023/07/22 09:33:04;;;;;;;6.50;3.30;;;;;;;;;;107206;1274;24599;-85
2023/07/22 09:35:41;;;;;;;6.10;2.90;;;;;;;;;;106964;1274;22517;-82
2023/07/22 09:38:08;;;;;;;7.00;3.00;;;;;;;;;;107020;1259;22521;-84
2023/07/22 09:40:42;;;;;;;6.30;3.10;;;;;;;;;;106980;1274;22487;-87
2023/07/22 09:43:13;;;;;;;5.80;2.80;;;;;;;;;;107121;1274;22512;-80
2023/07/22 09:45:40;;;;;;;7.20;2.80;;;;;;;;;;107230;1274;24234;-85
2023/07/22 09:48:08;;;;;;;5.10;2.50;;;;;;;;;;107121;1256;25441;-84
2023/07/22 09:50:36;;;;;;;5.40;2.50;;;;;;;;;;107187;1274;22580;-85
2023/07/22 09:53:03;;;;;;;6.10;3.30;;;;;;;;;;107151;1274;22534;-85
2023/07/22 09:55:30;;;;;;;5.20;2.80;;;;;;;;;;107126;1274;22520;-84
2023/07/22 09:58:09;;;;;;;5.40;2.80;;;;;;;;;;107142;1256;22524;-82
2023/07/22 10:00:36;;;;;;;5.80;2.70;;;;;;;;;;107225;1274;24192;-84
2023/07/22 10:03:22;;;;;;;5.60;2.60;;;;;;;;;;107159;1274;22551;-84
2023/07/22 10:05:50;;;;;;;5.40;2.70;;;;;;;;;;106962;1274;22568;-82
2023/07/22 10:08:19;;;;;;;6.60;2.60;;;;;;;;;;106997;1257;24212;-85
2023/07/22 10:10:51;;;;;;;5.70;2.50;;;;;;;;;;107039;1272;22524;-86
2023/07/22 10:13:19;;;;;;;6.90;2.60;;;;;;;;;;107048;1274;22531;-85
2023/07/22 10:15:58;;;;;;;5.50;2.90;;;;;;;;;;107191;1274;22639;-84
2023/07/22 10:18:28;;;;;;;5.60;2.60;;;;;;;;;;107120;1250;22566;-86
2023/07/22 10:21:07;;;;;;;5.30;2.40;;;;;;;;;;107153;1274;22535;-83
2023/07/22 10:23:36;;;;;;;6.40;2.70;;;;;;;;;;107234;1274;22531;-81
2023/07/22 10:26:04;;;;;;;5.90;2.60;;;;;;;;;;106991;1269;22651;-88
2023/07/22 10:28:35;;;;;;;5.30;2.60;;;;;;;;;;107099;1256;22524;-86
2023/07/22 10:31:04;;;;;;;5.00;2.80;;;;;;;;;;106964;1273;24067;-83
2023/07/22 10:33:34;;;;;;;5.30;2.50;;;;;;;;;;106977;1274;25466;-86
2023/07/22 10:36:02;;;;;;;5.00;2.60;;;;;;;;;;107036;1274;24289;-86
2023/07/22 10:38:29;;;;;;;6.20;2.50;;;;;;;;;;107090;1259;22525;-85
2023/07/22 10:40:56;;;;;;;6.20;2.40;;;;;;;;;;107011;1274;26478;-87
2023/07/22 10:43:29;;;;;;;5.80;2.30;;;;;;;;;;107000;1274;22517;-87
2023/07/22 10:45:57;;;;;;;7.00;2.50;;;;;;;;;;107237;1274;22540;-91
2023/07/22 10:48:42;;;;;;;5.10;2.30;;;;;;;;;;107259;1250;22675;-88
2023/07/22 10:51:14;;;;;;;5.40;2.50;;;;;;;;;;107142;1265;25224;-84
2023/07/22 10:53:43;;;;;;;5.70;2.30;;;;;;;;;;107234;1274;22631;-83
2023/07/22 11:03:21;;;;;;;5.10;2.50;;;;;;;;;;103824;1312;545002;-87
2023/07/22 11:05:50;;;;;;;6.70;2.90;;;;;;;;;;106137;1288;22544;-83
2023/07/22 11:08:35;;;;;;;6.20;2.70;;;;;;;;;;106168;1288;22970;-84
2023/07/22 11:11:03;;;;;;;6.20;2.60;;;;;;;;;;106120;1288;22532;-87
2023/07/22 11:13:34;;;;;;;5.00;2.30;;;;;;;;;;106211;1270;22564;-84
2023/07/22 11:16:01;;;;;;;5.60;2.70;;;;;;;;;;103819;1285;3407351;-86
2023/07/22 11:18:38;;;;;;;6.70;2.90;;;;;;;;;;106450;1285;22536;-80
2023/07/22 11:21:11;;;;;;;7.40;2.90;;;;;;;;;;107035;1276;22525;-88
2023/07/22 11:23:41;;;;;;;5.70;2.60;;;;;;;;;;106909;1261;24195;-83
2023/07/22 11:26:08;;;;;;;6.90;2.80;;;;;;;;;;106917;1276;22496;-86
2023/07/22 11:28:37;;;;;;;4.60;2.30;;;;;;;;;;106990;1253;22578;-84
2023/07/22 11:31:05;;;;;;;7.00;2.60;;;;;;;;;;106978;1276;22521;-88
2023/07/22 11:33:38;;;;;;;5.20;2.40;;;;;;;;;;106900;1259;26496;-87
2023/07/22 11:36:05;;;;;;;5.70;2.70;;;;;;;;;;106981;1277;22550;-89
2023/07/22 11:38:32;;;;;;;5.50;2.70;;;;;;;;;;106884;1277;23239;-85
2023/07/22 11:40:59;;;;;;;5.70;2.70;;;;;;;;;;106960;1277;24250;-82
2023/07/22 11:43:26;;;;;;;5.70;2.50;;;;;;;;;;106873;1259;22565;-87
2023/07/22 11:45:56;;;;;;;6.60;2.80;;;;;;;;;;106889;1277;22537;-88
2023/07/22 11:48:33;;;;;;;5.10;2.70;;;;;;;;;;106957;1277;22521;-85
2023/07/22 11:51:00;;;;;;;5.90;2.80;;;;;;;;;;106978;1277;22593;-82
2023/07/22 11:53:29;;;;;;;4.60;2.00;;;;;;;;;;106866;1277;22770;-88
2023/07/22 11:55:56;;;;;;;5.30;2.70;;;;;;;;;;106982;1277;22533;-88
2023/07/22 11:58:27;;;;;;;4.80;2.20;;;;;;;;;;106920;1257;22523;-85
2023/07/22 12:01:26;;;;;;;5.60;2.30;;;;;;;;;;106889;1277;22523;-85
2023/07/22 12:03:55;;;;;;;6.40;2.70;;;;;;;;;;106573;1265;24295;-87
2023/07/22 12:06:25;;;;;;;4.80;2.40;;;;;;;;;;106541;1282;22626;-80
2023/07/22 12:08:52;;;;;;;5.80;2.70;;;;;;;;;;106528;1283;25243;-86
2023/07/22 12:11:19;;;;;;;5.50;2.50;;;;;;;;;;106563;1282;25287;-82
2023/07/22 12:13:50;;;;;;;5.40;2.40;;;;;;;;;;106553;1259;22531;-86
2023/07/22 12:16:25;;;;;;;6.30;2.50;;;;;;;;;;106538;1283;25533;-87
2023/07/22 12:18:57;;;;;;;6.90;2.60;;;;;;;;;;106767;1276;24257;-84
2023/07/22 12:21:30;;;;;;;6.10;2.50;;;;;;;;;;106505;1276;22520;-86
2023/07/22 12:23:57;;;;;;;5.60;2.40;;;;;;;;;;106489;1265;24273;-87
2023/07/22 12:26:24;;;;;;;4.70;2.40;;;;;;;;;;106491;1282;24226;-79
2023/07/22 12:28:51;;;;;;;5.30;2.50;;;;;;;;;;106423;1283;24187;-86
2023/07/22 12:31:18;;;;;;;5.30;2.40;;;;;;;;;;106508;1283;22533;-84
2023/07/22 12:33:45;;;;;;;4.90;2.10;;;;;;;;;;106457;1260;25389;-86
2023/07/22 12:36:12;;;;;;;7.30;2.60;;;;;;;;;;106480;1283;24234;-90
2023/07/22 12:38:39;;;;;;;6.90;2.90;;;;;;;;;;106457;1283;22533;-83
2023/07/22 12:41:11;;;;;;;5.80;2.80;;;;;;;;;;106875;1278;24172;-87
2023/07/22 12:43:37;;;;;;;8.40;3.20;;;;;;;;;;106828;1278;22541;-88
2023/07/22 12:46:04;;;;;;;9.70;4.60;;;;;;;;;;106853;1270;22527;-90
2023/07/22 12:48:31;;;;;;;8.70;4.00;;;;;;;;;;106863;1278;24371;-85
2023/07/22 12:50:57;;;;;;;6.90;3.20;;;;;;;;;;106905;1278;22534;-88
2023/07/22 12:53:25;;;;;;;5.90;2.60;;;;;;;;;;106877;1278;24736;-86
2023/07/22 12:55:52;;;;;;;6.30;2.60;;;;;;;;;;106919;1264;22526;-88
2023/07/22 12:58:18;;;;;;;5.90;2.60;;;;;;;;;;106923;1278;26452;-81
2023/07/22 13:00:45;;;;;;;5.20;2.40;;;;;;;;;;106909;1278;24359;-89
2023/07/22 13:03:12;;;;;;;9.70;5.20;;;;;;;;;;106890;1274;22510;-86
2023/07/22 13:05:42;;;;;;;6.60;3.10;;;;;;;;;;106895;1275;22487;-84
2023/07/22 13:08:09;;;;;;;5.10;2.50;;;;;;;;;;106894;1270;22531;-82
2023/07/22 13:10:38;;;;;;;5.40;2.70;;;;;;;;;;106943;1271;22520;-86
2023/07/22 13:13:08;;;;;;;5.50;2.50;;;;;;;;;;106945;1275;24228;-88
2023/07/22 13:15:35;;;;;;;5.80;2.40;;;;;;;;;;106910;1259;24245;-85
2023/07/22 13:18:04;;;;;;;5.30;2.60;;;;;;;;;;106866;1276;25223;-85
2023/07/22 13:20:31;;;;;;;5.70;2.70;;;;;;;;;;106834;1279;24201;-79
2023/07/22 13:22:58;;;;;;;6.20;2.60;;;;;;;;;;106856;1279;22524;-89
2023/07/22 13:25:24;;;;;;;4.60;2.50;;;;;;;;;;106828;1262;22531;-85
2023/07/22 13:27:51;;;;;;;5.90;2.60;;;;;;;;;;106867;1279;25259;-82
2023/07/22 13:30:18;;;;;;;5.60;2.80;;;;;;;;;;106782;1279;25286;-83
2023/07/22 13:32:45;;;;;;;5.30;2.50;;;;;;;;;;106843;1279;22533;-87
2023/07/22 13:35:15;;;;;;;5.00;2.80;;;;;;;;;;106940;1267;22581;-84
2023/07/22 13:37:42;;;;;;;4.90;2.40;;;;;;;;;;106876;1279;22530;-85
2023/07/22 13:40:12;;;;;;;5.10;2.30;;;;;;;;;;106784;1279;22536;-82
2023/07/22 13:42:39;;;;;;;6.20;2.60;;;;;;;;;;106835;1279;22524;-86
2023/07/22 13:45:06;;;;;;;7.70;2.80;;;;;;;;;;106881;1279;22528;-82
2023/07/22 13:47:33;;;;;;;6.10;3.00;;;;;;;;;;106726;1260;22533;-86
2023/07/22 13:50:00;;;;;;;5.40;2.60;;;;;;;;;;106875;1272;22524;-85
2023/07/22 13:52:27;;;;;;;5.60;2.60;;;;;;;;;;106818;1272;24194;-82
2023/07/22 13:54:54;;;;;;;5.00;2.70;;;;;;;;;;106850;1271;25284;-85
2023/07/22 13:57:21;;;;;;;5.50;2.60;;;;;;;;;;106761;1274;25340;-84
2023/07/22 13:59:51;;;;;;;6.20;3.00;;;;;;;;;;106945;1272;22578;-83
2023/07/22 14:02:18;;;;;;;7.10;3.10;;;;;;;;;;106920;1273;22524;-82
2023/07/22 14:04:51;;;;;;;4.90;2.50;;;;;;;;;;106926;1271;22539;-87
2023/07/22 14:07:18;;;;;;;5.80;2.80;;;;;;;;;;106771;1262;26482;-83
2023/07/22 14:09:51;;;;;;;6.50;3.20;;;;;;;;;;106843;1272;25281;-87
2023/07/22 14:12:18;;;;;;;7.40;4.20;;;;;;;;;;106910;1272;22546;-85
2023/07/22 14:14:45;;;;;;;6.00;3.10;;;;;;;;;;106929;1275;25321;-84
2023/07/22 14:17:12;;;;;;;6.40;2.80;;;;;;;;;;106894;1259;22538;-86
2023/07/22 14:19:38;;;;;;;5.70;2.80;;;;;;;;;;106854;1278;22510;-85
2023/07/22 14:22:05;;;;;;;6.70;3.00;;;;;;;;;;106843;1278;22990;-88
2023/07/22 14:24:32;;;;;;;5.70;2.70;;;;;;;;;;106940;1270;22527;-82
2023/07/22 14:26:59;;;;;;;5.10;2.40;;;;;;;;;;106914;1259;25384;-80
2023/07/22 14:29:29;;;;;;;6.20;2.80;;;;;;;;;;106981;1275;22584;-87
2023/07/22 14:31:59;;;;;;;5.30;2.40;;;;;;;;;;106931;1271;22572;-83
2023/07/22 14:34:28;;;;;;;5.20;2.30;;;;;;;;;;106895;1271;23117;-82
2023/07/22 14:37:05;;;;;;;4.70;2.40;;;;;;;;;;106975;1259;23245;-86
2023/07/22 14:39:34;;;;;;;5.30;2.60;;;;;;;;;;106948;1271;22528;-84
2023/07/22 14:42:03;;;;;;;5.80;2.60;;;;;;;;;;106878;1275;24196;-88
2023/07/22 14:44:30;;;;;;;5.20;2.60;;;;;;;;;;106906;1278;22492;-81
2023/07/22 14:47:00;;;;;;;6.40;2.30;;;;;;;;;;106912;1272;22529;-86
2023/07/22 14:49:26;;;;;;;6.70;2.50;;;;;;;;;;106888;1278;22527;-89